createdAt,value
2018-03-18T00:00:13.953Z,-2.16
2018-03-18T00:01:22.779Z,-2.26
2018-03-18T00:02:31.752Z,-2.21
2018-03-18T00:03:40.676Z,-2.09
2018-03-18T00:04:49.499Z,-2.18
2018-03-18T00:05:58.319Z,-2.24
2018-03-18T00:07:07.143Z,-2.16
2018-03-18T00:08:16.547Z,-2.16
2018-03-18T00:09:25.390Z,-2.27
2018-03-18T00:10:34.197Z,-2.29
2018-03-18T00:11:43.292Z,-2.42
2018-03-18T00:12:52.116Z,-2.27
2018-03-18T00:14:00.937Z,-2.13
2018-03-18T00:15:09.765Z,-2.26
2018-03-18T00:16:18.589Z,-2.24
2018-03-18T00:17:27.417Z,-2.26
2018-03-18T00:18:36.235Z,-2.3
2018-03-18T00:19:45.107Z,-2.27
2018-03-18T00:20:53.933Z,-2.3
2018-03-18T00:22:02.756Z,-2.09
2018-03-18T00:23:11.853Z,-2.16
2018-03-18T00:24:20.674Z,-1.98
2018-03-18T00:25:29.548Z,-2.13
2018-03-18T00:26:38.373Z,-2.16
2018-03-18T00:27:47.473Z,-2.34
2018-03-18T00:28:56.299Z,-2.21
2018-03-18T00:30:05.116Z,-2.3
2018-03-18T00:31:13.939Z,-2.27
2018-03-18T00:32:22.782Z,-2.3
2018-03-18T00:33:31.586Z,-2.32
2018-03-18T00:34:40.409Z,-2.39
2018-03-18T00:35:49.233Z,-2.42
2018-03-18T00:36:58.158Z,-2.32
2018-03-18T00:38:07.259Z,-2.34
2018-03-18T00:39:16.081Z,-2.32
2018-03-18T00:40:24.910Z,-2.35
2018-03-18T00:41:33.732Z,-2.16
2018-03-18T00:42:42.805Z,-2.32
2018-03-18T00:43:51.906Z,-2.4
2018-03-18T00:45:00.729Z,-1.98
2018-03-18T00:46:09.552Z,-2.16
2018-03-18T00:47:18.377Z,-2.3
2018-03-18T00:48:27.300Z,-2.37
2018-03-18T00:49:36.122Z,-2.34
2018-03-18T00:50:44.946Z,-2.34
2018-03-18T00:51:53.771Z,-2.39
2018-03-18T00:53:02.594Z,-2.29
2018-03-18T00:54:11.589Z,-2.34
2018-03-18T00:55:20.390Z,-2.37
2018-03-18T00:56:29.216Z,-2.34
2018-03-18T00:57:38.039Z,-2.39
2018-03-18T00:58:46.864Z,-2.45
2018-03-18T00:59:56.068Z,-2.27
2018-03-18T01:01:04.892Z,-2.26
2018-03-18T01:02:13.716Z,-2.43
2018-03-18T01:03:22.546Z,-2.26
2018-03-18T01:04:31.372Z,-2.34
2018-03-18T01:05:40.444Z,-2.35
2018-03-18T01:06:49.268Z,-2.48
2018-03-18T01:07:58.091Z,-2.48
2018-03-18T01:09:06.914Z,-2.39
2018-03-18T01:10:15.733Z,-2.42
2018-03-18T01:11:24.557Z,-2.42
2018-03-18T01:12:33.379Z,-2.52
2018-03-18T01:13:42.201Z,-2.46
2018-03-18T01:14:51.025Z,-2.4
2018-03-18T01:15:59.845Z,-2.39
2018-03-18T01:17:08.681Z,-2.45
2018-03-18T01:18:17.784Z,-2.66
2018-03-18T01:19:26.887Z,-2.58
2018-03-18T01:20:35.710Z,-2.39
2018-03-18T01:21:44.535Z,-2.46
2018-03-18T01:22:53.406Z,-2.56
2018-03-18T01:24:02.234Z,-2.58
2018-03-18T01:25:11.053Z,-2.53
2018-03-18T01:26:20.151Z,-2.5
2018-03-18T01:27:28.975Z,-2.5
2018-03-18T01:28:37.848Z,-2.61
2018-03-18T01:29:46.673Z,-2.52
2018-03-18T01:30:55.495Z,-2.63
2018-03-18T01:32:04.320Z,-2.64
2018-03-18T01:33:13.415Z,-2.66
2018-03-18T01:34:22.239Z,-2.67
2018-03-18T01:35:31.345Z,-2.7
2018-03-18T01:36:40.168Z,-2.7
2018-03-18T01:37:48.992Z,-2.6
2018-03-18T01:38:57.816Z,-2.66
2018-03-18T01:40:06.740Z,-2.61
2018-03-18T01:41:15.562Z,-2.66
2018-03-18T01:42:24.661Z,-2.71
2018-03-18T01:43:33.486Z,-2.46
2018-03-18T01:44:42.310Z,-2.6
2018-03-18T01:45:51.183Z,-2.66
2018-03-18T01:47:00.005Z,-2.58
2018-03-18T01:48:08.829Z,-2.56
2018-03-18T01:49:17.652Z,-2.7
2018-03-18T01:50:26.473Z,-2.5
2018-03-18T01:53:16.427Z,-2.68
2018-03-18T01:54:25.251Z,-2.64
2018-03-18T01:55:34.074Z,-2.63
2018-03-18T01:56:43.497Z,-2.71
2018-03-18T01:57:52.321Z,-2.61
2018-03-18T01:59:01.144Z,-2.7
2018-03-18T02:00:09.966Z,-2.66
2018-03-18T02:01:19.068Z,-2.68
2018-03-18T02:02:27.994Z,-2.81
2018-03-18T02:03:37.094Z,-2.68
2018-03-18T02:04:45.917Z,-2.61
2018-03-18T02:05:54.741Z,-2.5
2018-03-18T02:07:03.571Z,-2.66
2018-03-18T02:08:12.398Z,-2.7
2018-03-18T02:09:21.222Z,-2.56
2018-03-18T02:10:30.317Z,-2.68
2018-03-18T02:11:39.139Z,-2.5
2018-03-18T02:12:48.242Z,-2.67
2018-03-18T02:13:57.162Z,-2.85
2018-03-18T02:15:05.986Z,-2.91
2018-03-18T02:16:14.808Z,-2.79
2018-03-18T02:17:23.912Z,-2.77
2018-03-18T02:18:32.734Z,-2.68
2018-03-18T02:19:41.554Z,-2.79
2018-03-18T02:20:50.379Z,-2.79
2018-03-18T02:21:59.200Z,-2.89
2018-03-18T02:23:08.304Z,-2.71
2018-03-18T02:24:17.125Z,-2.63
2018-03-18T02:25:26.248Z,-2.77
2018-03-18T02:26:35.073Z,-2.77
2018-03-18T02:27:43.896Z,-2.88
2018-03-18T02:28:52.723Z,-3.05
2018-03-18T02:30:01.545Z,-3.02
2018-03-18T02:31:10.671Z,-3.06
2018-03-18T02:32:19.786Z,-3.1
2018-03-18T02:33:28.611Z,-3.07
2018-03-18T02:34:37.434Z,-2.96
2018-03-18T02:35:46.558Z,-2.81
2018-03-18T02:36:55.811Z,-2.84
2018-03-18T02:38:04.636Z,-2.92
2018-03-18T02:39:13.460Z,-2.97
2018-03-18T02:40:22.282Z,-2.81
2018-03-18T02:41:31.105Z,-3
2018-03-18T02:42:40.029Z,-3
2018-03-18T02:43:48.853Z,-2.97
2018-03-18T02:44:57.957Z,-3
2018-03-18T02:46:06.781Z,-3.03
2018-03-18T02:47:15.607Z,-2.96
2018-03-18T02:48:24.479Z,-2.94
2018-03-18T02:49:33.299Z,-2.92
2018-03-18T02:50:42.124Z,-2.92
2018-03-18T02:51:50.947Z,-3.02
2018-03-18T02:52:59.768Z,-3.07
2018-03-18T02:54:08.590Z,-3.06
2018-03-18T02:55:17.413Z,-3.05
2018-03-18T02:56:26.544Z,-3.05
2018-03-18T02:57:35.615Z,-3.03
2018-03-18T02:58:44.437Z,-2.96
2018-03-18T02:59:53.360Z,-3.05
2018-03-18T03:01:02.185Z,-3
2018-03-18T03:02:11.280Z,-2.99
2018-03-18T03:03:20.104Z,-2.97
2018-03-18T03:04:29.210Z,-3.02
2018-03-18T03:05:38.083Z,-3.05
2018-03-18T03:06:47.182Z,-2.99
2018-03-18T03:07:56.017Z,-2.64
2018-03-18T03:09:04.835Z,-2.91
2018-03-18T03:10:13.657Z,-2.92
2018-03-18T03:11:22.850Z,-2.74
2018-03-18T03:12:31.665Z,-2.85
2018-03-18T03:13:40.484Z,-2.94
2018-03-18T03:14:49.590Z,-3.02
2018-03-18T03:15:58.403Z,-2.99
2018-03-18T03:17:07.324Z,-3.1
2018-03-18T03:18:16.422Z,-3.05
2018-03-18T03:19:25.242Z,-3.05
2018-03-18T03:20:34.064Z,-3.07
2018-03-18T03:21:43.162Z,-3.12
2018-03-18T03:22:52.311Z,-3.09
2018-03-18T03:24:01.407Z,-3.06
2018-03-18T03:25:10.503Z,-3.09
2018-03-18T03:26:19.326Z,-3.25
2018-03-18T03:27:28.146Z,-3.24
2018-03-18T03:28:37.119Z,-3.1
2018-03-18T03:29:45.943Z,-3.03
2018-03-18T03:30:54.816Z,-3.1
2018-03-18T03:32:03.652Z,-3.2
2018-03-18T03:33:13.029Z,-3.1
2018-03-18T03:34:21.854Z,-2.74
2018-03-18T03:35:30.676Z,-2.96
2018-03-18T03:36:39.498Z,-3.05
2018-03-18T03:37:48.320Z,-3.14
2018-03-18T03:38:57.419Z,-3.17
2018-03-18T03:40:06.822Z,-3.17
2018-03-18T03:41:15.920Z,-3.3
2018-03-18T03:42:24.740Z,-3.31
2018-03-18T03:43:33.563Z,-3.33
2018-03-18T03:44:42.435Z,-3.31
2018-03-18T03:45:51.306Z,-3.27
2018-03-18T03:47:00.127Z,-3.28
2018-03-18T03:48:09.098Z,-3.31
2018-03-18T03:49:17.920Z,-3.35
2018-03-18T03:50:27.019Z,-3.31
2018-03-18T03:51:35.840Z,-3.28
2018-03-18T03:52:44.662Z,-3.18
2018-03-18T03:53:53.763Z,-3.23
2018-03-18T03:55:02.577Z,-3.35
2018-03-18T03:56:11.399Z,-3.18
2018-03-18T03:57:20.323Z,-3.24
2018-03-18T03:58:29.144Z,-3.18
2018-03-18T03:59:37.973Z,-3.17
2018-03-18T04:00:46.791Z,-3.27
2018-03-18T04:01:55.611Z,-3.23
2018-03-18T04:03:04.582Z,-3.33
2018-03-18T04:04:13.405Z,-3.3
2018-03-18T04:05:22.226Z,-3.3
2018-03-18T04:06:31.047Z,-3.31
2018-03-18T04:07:40.150Z,-3.41
2018-03-18T04:08:48.970Z,-3.36
2018-03-18T04:09:57.790Z,-3.36
2018-03-18T04:11:07.169Z,-3.36
2018-03-18T04:12:15.991Z,-3.45
2018-03-18T04:13:24.813Z,-3.48
2018-03-18T04:14:33.637Z,-3.42
2018-03-18T04:15:42.459Z,-3.45
2018-03-18T04:16:51.557Z,-3.49
2018-03-18T04:18:00.380Z,-3.45
2018-03-18T04:19:09.203Z,-3.45
2018-03-18T04:20:18.455Z,-3.38
2018-03-18T04:21:27.277Z,-3.36
2018-03-18T04:22:36.098Z,-3.46
2018-03-18T04:23:45.249Z,-3.41
2018-03-18T04:24:54.072Z,-3.42
2018-03-18T04:26:02.892Z,-3.52
2018-03-18T04:27:11.716Z,-3.54
2018-03-18T04:28:20.539Z,-3.57
2018-03-18T04:29:29.637Z,-3.46
2018-03-18T04:30:38.462Z,-3.42
2018-03-18T04:31:47.281Z,-3.48
2018-03-18T04:32:56.104Z,-3.48
2018-03-18T04:34:04.924Z,-3.54
2018-03-18T04:35:13.745Z,-3.57
2018-03-18T04:36:22.570Z,-3.59
2018-03-18T04:37:31.389Z,-3.52
2018-03-18T04:38:40.213Z,-3.56
2018-03-18T04:39:49.038Z,-3.66
2018-03-18T04:40:57.854Z,-3.56
2018-03-18T04:42:06.676Z,-3.48
2018-03-18T04:43:15.500Z,-3.41
2018-03-18T04:44:24.319Z,-3.49
2018-03-18T04:45:33.140Z,-3.53
2018-03-18T04:46:41.964Z,-3.49
2018-03-18T04:47:50.786Z,-3.45
2018-03-18T04:48:59.609Z,-3.46
2018-03-18T04:50:08.429Z,-3.42
2018-03-18T04:51:17.252Z,-3.46
2018-03-18T04:52:26.072Z,-3.43
2018-03-18T04:53:34.895Z,-3.59
2018-03-18T04:54:44.068Z,-3.62
2018-03-18T04:55:52.889Z,-3.56
2018-03-18T04:57:01.712Z,-3.56
2018-03-18T04:58:10.535Z,-3.43
2018-03-18T04:59:19.355Z,-3.52
2018-03-18T05:00:28.606Z,-3.49
2018-03-18T05:01:37.430Z,-3.48
2018-03-18T05:02:46.527Z,-3.56
2018-03-18T05:03:55.350Z,-3.66
2018-03-18T05:05:04.175Z,-3.66
2018-03-18T05:06:13.044Z,-3.67
2018-03-18T05:07:21.870Z,-3.57
2018-03-18T05:08:30.964Z,-3.69
2018-03-18T05:09:40.078Z,-3.75
2018-03-18T05:10:48.894Z,-3.71
2018-03-18T05:11:57.714Z,-3.81
2018-03-18T05:13:06.811Z,-3.66
2018-03-18T05:14:15.634Z,-3.67
2018-03-18T05:15:24.460Z,-3.63
2018-03-18T05:16:33.287Z,-3.49
2018-03-18T05:17:42.155Z,-3.6
2018-03-18T05:18:51.254Z,-3.67
2018-03-18T05:20:00.075Z,-3.69
2018-03-18T05:21:08.897Z,-3.6
2018-03-18T05:22:17.719Z,-3.48
2018-03-18T05:23:26.642Z,-3.56
2018-03-18T05:24:35.463Z,-3.6
2018-03-18T05:25:44.287Z,-3.66
2018-03-18T05:26:53.111Z,-3.52
2018-03-18T05:28:01.937Z,-3.59
2018-03-18T05:29:10.913Z,-3.59
2018-03-18T05:30:19.727Z,-3.67
2018-03-18T05:31:28.822Z,-3.79
2018-03-18T05:32:37.919Z,-3.79
2018-03-18T05:33:46.740Z,-3.79
2018-03-18T05:34:55.764Z,-3.82
2018-03-18T05:36:04.859Z,-3.75
2018-03-18T05:37:13.680Z,-3.85
2018-03-18T05:38:22.501Z,-3.82
2018-03-18T05:39:31.319Z,-3.86
2018-03-18T05:40:40.144Z,-3.75
2018-03-18T05:41:48.966Z,-3.56
2018-03-18T05:42:58.065Z,-3.71
2018-03-18T05:44:06.888Z,-3.6
2018-03-18T05:45:15.706Z,-3.72
2018-03-18T05:46:25.281Z,-3.86
2018-03-18T05:47:34.101Z,-3.81
2018-03-18T05:48:42.920Z,-3.82
2018-03-18T05:49:51.746Z,-3.83
2018-03-18T05:51:00.565Z,-3.79
2018-03-18T05:52:09.486Z,-3.78
2018-03-18T05:53:18.308Z,-3.79
2018-03-18T05:54:27.404Z,-3.79
2018-03-18T05:55:36.227Z,-3.78
2018-03-18T05:56:45.049Z,-3.9
2018-03-18T05:57:53.920Z,-3.82
2018-03-18T05:59:02.742Z,-3.78
2018-03-18T06:00:11.561Z,-3.72
2018-03-18T06:01:20.385Z,-3.64
2018-03-18T06:02:29.205Z,-3.71
2018-03-18T06:03:38.079Z,-3.69
2018-03-18T06:04:46.900Z,-3.54
2018-03-18T06:05:55.722Z,-3.66
2018-03-18T06:07:04.545Z,-3.75
2018-03-18T06:08:13.466Z,-3.82
2018-03-18T06:09:22.489Z,-3.69
2018-03-18T06:10:31.319Z,-3.76
2018-03-18T06:11:40.135Z,-3.83
2018-03-18T06:12:48.959Z,-3.78
2018-03-18T06:13:57.781Z,-3.67
2018-03-18T06:15:06.851Z,-3.69
2018-03-18T06:16:15.675Z,-3.71
2018-03-18T06:17:25.057Z,-3.62
2018-03-18T06:18:33.876Z,-3.66
2018-03-18T06:19:42.980Z,-3.59
2018-03-18T06:20:52.228Z,-3.56
2018-03-18T06:22:01.053Z,-3.64
2018-03-18T06:23:09.875Z,-3.49
2018-03-18T06:24:18.972Z,-3.52
2018-03-18T06:25:27.792Z,-3.38
2018-03-18T06:26:36.714Z,-3.57
2018-03-18T06:27:45.540Z,-3.59
2018-03-18T06:28:54.362Z,-3.48
2018-03-18T06:30:03.460Z,-3.59
2018-03-18T06:31:12.277Z,-3.54
2018-03-18T06:32:21.097Z,-3.56
2018-03-18T06:33:29.920Z,-3.63
2018-03-18T06:34:38.740Z,-3.49
2018-03-18T06:35:47.564Z,-3.38
2018-03-18T06:36:56.385Z,-3.31
2018-03-18T06:38:05.207Z,-3.59
2018-03-18T06:39:14.304Z,-3.59
2018-03-18T06:40:23.123Z,-3.54
2018-03-18T06:41:31.943Z,-3.46
2018-03-18T06:42:40.771Z,-3.43
2018-03-18T06:43:49.869Z,-3.56
2018-03-18T06:44:58.691Z,-3.49
2018-03-18T06:46:07.804Z,-3.56
2018-03-18T06:47:16.627Z,-3.56
2018-03-18T06:48:25.449Z,-3.54
2018-03-18T06:49:34.468Z,-3.56
2018-03-18T06:50:43.292Z,-3.43
2018-03-18T06:51:52.397Z,-3.42
2018-03-18T06:53:01.212Z,-3.25
2018-03-18T06:54:10.328Z,-3.46
2018-03-18T06:55:19.801Z,-3.42
2018-03-18T06:56:28.622Z,-3.46
2018-03-18T06:57:37.445Z,-3.43
2018-03-18T06:58:46.266Z,-3.49
2018-03-18T06:59:55.098Z,-3.49
2018-03-18T07:01:04.592Z,-3.38
2018-03-18T07:02:13.968Z,-3.27
2018-03-18T07:03:23.069Z,-3.27
2018-03-18T07:04:31.895Z,-3.21
2018-03-18T07:05:40.714Z,-3.15
2018-03-18T07:06:49.588Z,-3.33
2018-03-18T07:07:58.409Z,-3.2
2018-03-18T07:09:07.232Z,-3.33
2018-03-18T07:10:16.055Z,-3.33
2018-03-18T07:11:24.879Z,-3.27
2018-03-18T07:12:34.131Z,-3.15
2018-03-18T07:13:42.953Z,-3.12
2018-03-18T07:14:51.778Z,-3.18
2018-03-18T07:16:00.600Z,-3.15
2018-03-18T07:17:09.424Z,-3.2
2018-03-18T07:18:18.396Z,-3.18
2018-03-18T07:19:27.221Z,-3.25
2018-03-18T07:20:36.045Z,-3.2
2018-03-18T07:21:44.864Z,-3.17
2018-03-18T07:22:53.972Z,-3.09
2018-03-18T07:24:02.853Z,-3.07
2018-03-18T07:25:11.671Z,-3.03
2018-03-18T07:26:20.492Z,-2.99
2018-03-18T07:27:29.315Z,-2.92
2018-03-18T07:28:38.137Z,-2.97
2018-03-18T07:29:46.959Z,-2.92
2018-03-18T07:30:55.782Z,-3
2018-03-18T07:32:04.605Z,-2.94
2018-03-18T07:33:13.464Z,-2.96
2018-03-18T07:34:22.560Z,-2.92
2018-03-18T07:35:31.431Z,-2.96
2018-03-18T07:36:40.257Z,-3.02
2018-03-18T07:37:49.076Z,-3.07
2018-03-18T07:38:57.899Z,-2.92
2018-03-18T07:40:06.724Z,-2.91
2018-03-18T07:41:15.847Z,-2.91
2018-03-18T07:42:24.670Z,-2.99
2018-03-18T07:43:33.495Z,-2.92
2018-03-18T07:44:42.317Z,-2.86
2018-03-18T07:45:51.140Z,-2.85
2018-03-18T07:47:00.215Z,-2.78
2018-03-18T07:48:09.314Z,-2.68
2018-03-18T07:49:18.415Z,-2.48
2018-03-18T07:50:27.236Z,-2.66
2018-03-18T07:51:36.061Z,-2.64
2018-03-18T07:52:44.933Z,-2.66
2018-03-18T07:53:53.758Z,-2.66
2018-03-18T07:55:02.583Z,-2.58
2018-03-18T07:56:11.679Z,-2.61
2018-03-18T07:57:20.502Z,-2.58
2018-03-18T07:58:29.625Z,-2.53
2018-03-18T07:59:38.734Z,-2.48
2018-03-18T08:00:47.558Z,-2.5
2018-03-18T08:01:56.387Z,-2.34
2018-03-18T08:03:05.519Z,-2.35
2018-03-18T08:04:14.444Z,-2.45
2018-03-18T08:05:23.271Z,-2.39
2018-03-18T08:06:32.096Z,-2.43
2018-03-18T08:07:40.919Z,-2.39
2018-03-18T08:08:49.745Z,-2.39
2018-03-18T08:09:58.569Z,-2.49
2018-03-18T08:11:07.677Z,-2.39
2018-03-18T08:12:16.502Z,-2.32
2018-03-18T08:13:25.324Z,-2.08
2018-03-18T08:14:34.148Z,-2.24
2018-03-18T08:15:43.274Z,-2.21
2018-03-18T08:16:52.378Z,-2.2
2018-03-18T08:18:01.203Z,-2.3
2018-03-18T08:19:10.027Z,-2.21
2018-03-18T08:20:18.851Z,-2.12
2018-03-18T08:21:27.726Z,-2.12
2018-03-18T08:22:36.551Z,-2.18
2018-03-18T08:23:45.373Z,-2.26
2018-03-18T08:24:54.198Z,-2.26
2018-03-18T08:26:03.022Z,-2.12
2018-03-18T08:27:11.903Z,-2.05
2018-03-18T08:28:20.719Z,-2.05
2018-03-18T08:29:29.544Z,-1.98
2018-03-18T08:30:38.368Z,-1.84
2018-03-18T08:31:47.198Z,-1.87
2018-03-18T08:32:56.019Z,-1.9
2018-03-18T08:34:04.842Z,-1.95
2018-03-18T08:35:13.666Z,-1.95
2018-03-18T08:36:22.498Z,-1.9
2018-03-18T08:37:31.320Z,-1.98
2018-03-18T08:38:40.293Z,-1.85
2018-03-18T08:39:49.114Z,-1.9
2018-03-18T08:40:57.938Z,-1.72
2018-03-18T08:42:06.761Z,-1.77
2018-03-18T08:43:15.861Z,-1.7
2018-03-18T08:44:24.736Z,-1.64
2018-03-18T08:45:33.564Z,-1.58
2018-03-18T08:46:42.667Z,-1.61
2018-03-18T08:47:51.489Z,-1.58
2018-03-18T08:49:00.312Z,-1.48
2018-03-18T08:50:09.620Z,-1.59
2018-03-18T08:51:18.443Z,-1.54
2018-03-18T08:52:27.267Z,-1.51
2018-03-18T08:53:36.090Z,-1.54
2018-03-18T08:54:44.921Z,-1.49
2018-03-18T08:55:53.895Z,-1.55
2018-03-18T08:57:03.000Z,-1.51
2018-03-18T08:58:11.826Z,-1.41
2018-03-18T08:59:20.654Z,-1.48
2018-03-18T09:00:29.473Z,-1.35
2018-03-18T09:01:38.348Z,-1.4
2018-03-18T09:02:47.173Z,-1.22
2018-03-18T09:03:56.275Z,-1.3
2018-03-18T09:05:05.101Z,-1.25
2018-03-18T09:06:13.927Z,-1.1
2018-03-18T09:07:23.002Z,-1.1
2018-03-18T09:08:31.826Z,-1.12
2018-03-18T09:09:40.649Z,-1.04
2018-03-18T09:10:49.475Z,-0.82
2018-03-18T09:11:58.582Z,-0.95
2018-03-18T09:13:07.504Z,-0.89
2018-03-18T09:14:16.329Z,-0.83
2018-03-18T09:15:25.153Z,-0.78
2018-03-18T09:16:33.980Z,-0.76
2018-03-18T09:17:42.808Z,-0.79
2018-03-18T09:18:51.676Z,-0.69
2018-03-18T09:20:00.500Z,-0.83
2018-03-18T09:21:09.605Z,-0.7
2018-03-18T09:22:18.429Z,-0.62
2018-03-18T09:23:27.255Z,-0.64
2018-03-18T09:24:36.127Z,-0.6
2018-03-18T09:25:45.233Z,-0.51
2018-03-18T09:26:54.059Z,-0.58
2018-03-18T09:28:02.887Z,-0.57
2018-03-18T09:29:11.713Z,-0.43
2018-03-18T09:30:20.564Z,-0.37
2018-03-18T09:31:29.363Z,-0.44
2018-03-18T09:32:38.238Z,-0.46
2018-03-18T09:33:47.017Z,-0.44
2018-03-18T09:34:55.843Z,-0.49
2018-03-18T09:36:04.919Z,-0.37
2018-03-18T09:37:13.745Z,-0.4
2018-03-18T09:38:22.572Z,-0.37
2018-03-18T09:39:31.397Z,-0.23
2018-03-18T09:40:40.222Z,-0.29
2018-03-18T09:41:49.151Z,-0.42
2018-03-18T09:42:57.972Z,-0.42
2018-03-18T09:44:07.073Z,-0.28
2018-03-18T09:45:15.895Z,-0.14
2018-03-18T09:46:25.020Z,-0.07
2018-03-18T09:47:33.946Z,-0.11
2018-03-18T09:48:42.772Z,0.04
2018-03-18T09:49:51.600Z,-0.08
2018-03-18T09:51:00.425Z,0
2018-03-18T09:52:09.250Z,0.07
2018-03-18T09:53:18.225Z,-0.03
2018-03-18T09:54:27.049Z,0
2018-03-18T09:55:35.875Z,0.03
2018-03-18T09:56:44.702Z,0.08
2018-03-18T09:57:53.526Z,0.08
2018-03-18T09:59:02.603Z,0.07
2018-03-18T10:00:11.430Z,0.1
2018-03-18T10:01:20.254Z,0.2
2018-03-18T10:02:29.081Z,0.28
2018-03-18T10:03:37.905Z,0.2
2018-03-18T10:04:46.835Z,0.29
2018-03-18T10:05:55.940Z,0.35
2018-03-18T10:07:04.764Z,0.35
2018-03-18T10:08:13.618Z,0.47
2018-03-18T10:09:22.415Z,0.49
2018-03-18T10:10:31.342Z,0.5
2018-03-18T10:11:40.173Z,0.49
2018-03-18T10:12:49.273Z,0.44
2018-03-18T10:13:58.155Z,0.32
2018-03-18T10:15:06.927Z,0.36
2018-03-18T10:16:15.903Z,0.28
2018-03-18T10:17:25.006Z,0.33
2018-03-18T10:18:33.830Z,0.42
2018-03-18T10:19:42.656Z,0.44
2018-03-18T10:20:51.480Z,0.42
2018-03-18T10:22:00.356Z,0.44
2018-03-18T10:23:09.180Z,0.6
2018-03-18T10:24:18.006Z,0.65
2018-03-18T10:25:26.831Z,0.76
2018-03-18T10:26:35.657Z,0.7
2018-03-18T10:27:44.488Z,0.75
2018-03-18T10:28:53.311Z,0.78
2018-03-18T10:30:02.140Z,0.84
2018-03-18T10:31:10.985Z,0.8
2018-03-18T10:32:20.136Z,0.75
2018-03-18T10:33:29.648Z,0.69
2018-03-18T10:34:38.476Z,0.76
2018-03-18T10:35:47.304Z,0.88
2018-03-18T10:36:56.135Z,0.79
2018-03-18T10:38:04.960Z,0.88
2018-03-18T10:39:13.787Z,0.87
2018-03-18T10:40:22.614Z,0.97
2018-03-18T10:41:31.440Z,1.04
2018-03-18T10:42:40.544Z,1.08
2018-03-18T10:43:49.376Z,1
2018-03-18T10:44:58.249Z,0.98
2018-03-18T10:46:07.375Z,1.02
2018-03-18T10:47:16.479Z,0.96
2018-03-18T10:48:25.306Z,1
2018-03-18T10:49:34.133Z,1.08
2018-03-18T10:50:42.965Z,1.12
2018-03-18T10:51:51.796Z,1.06
2018-03-18T10:53:00.624Z,1.12
2018-03-18T10:54:09.451Z,1.15
2018-03-18T10:55:18.279Z,1.09
2018-03-18T10:56:27.202Z,1.12
2018-03-18T10:57:36.029Z,1.12
2018-03-18T10:58:44.904Z,1.05
2018-03-18T10:59:53.732Z,1.08
2018-03-18T11:01:02.559Z,1.18
2018-03-18T11:02:11.535Z,1.26
2018-03-18T11:03:20.363Z,1.3
2018-03-18T11:04:29.188Z,1.34
2018-03-18T11:05:38.015Z,1.3
2018-03-18T11:06:46.847Z,1.36
2018-03-18T11:07:55.674Z,1.33
2018-03-18T11:09:04.523Z,1.41
2018-03-18T11:10:13.327Z,1.62
2018-03-18T11:11:22.155Z,1.58
2018-03-18T11:12:30.983Z,1.55
2018-03-18T11:13:40.237Z,1.5
2018-03-18T11:14:49.064Z,1.58
2018-03-18T11:15:57.895Z,1.5
2018-03-18T11:17:06.725Z,1.62
2018-03-18T11:18:15.548Z,1.62
2018-03-18T11:19:24.534Z,1.63
2018-03-18T11:20:33.355Z,1.72
2018-03-18T11:21:42.180Z,1.69
2018-03-18T11:22:51.006Z,1.48
2018-03-18T11:23:59.835Z,1.58
2018-03-18T11:25:08.714Z,1.55
2018-03-18T11:26:17.543Z,1.76
2018-03-18T11:27:26.371Z,1.84
2018-03-18T11:28:35.197Z,2.03
2018-03-18T11:29:44.026Z,2.02
2018-03-18T11:30:52.953Z,1.99
2018-03-18T11:32:01.780Z,1.88
2018-03-18T11:33:10.605Z,1.84
2018-03-18T11:34:19.435Z,1.98
2018-03-18T11:35:28.266Z,1.99
2018-03-18T11:36:37.143Z,2.07
2018-03-18T11:37:45.970Z,2.02
2018-03-18T11:38:54.799Z,2.02
2018-03-18T11:40:03.628Z,1.95
2018-03-18T11:41:12.727Z,2.12
2018-03-18T11:42:21.707Z,2
2018-03-18T11:43:30.547Z,2.02
2018-03-18T11:44:39.365Z,2.1
2018-03-18T11:45:48.194Z,2.05
2018-03-18T11:46:57.304Z,1.88
2018-03-18T11:48:06.281Z,2.1
2018-03-18T11:49:15.114Z,2.06
2018-03-18T11:50:23.936Z,2.07
2018-03-18T11:51:33.054Z,2
2018-03-18T11:52:41.934Z,2.09
2018-03-18T11:53:50.760Z,2.1
2018-03-18T11:54:59.586Z,2.2
2018-03-18T11:56:08.970Z,2.21
2018-03-18T11:57:17.799Z,2.34
2018-03-18T11:58:26.910Z,2.24
2018-03-18T11:59:35.789Z,2.31
2018-03-18T12:00:44.620Z,2.39
2018-03-18T12:01:53.442Z,2.53
2018-03-18T12:03:02.270Z,2.57
2018-03-18T12:04:11.374Z,2.49
2018-03-18T12:05:20.634Z,2.46
2018-03-18T12:06:29.519Z,2.56
2018-03-18T12:07:38.287Z,2.77
2018-03-18T12:08:47.121Z,2.82
2018-03-18T12:09:55.951Z,2.92
2018-03-18T12:11:04.828Z,3.11
2018-03-18T12:12:13.656Z,3.1
2018-03-18T12:13:22.764Z,3.1
2018-03-18T12:14:31.869Z,3
2018-03-18T12:15:40.702Z,3.08
2018-03-18T12:16:49.535Z,3.02
2018-03-18T12:17:58.366Z,3.21
2018-03-18T12:19:07.202Z,3.21
2018-03-18T12:20:16.307Z,3.39
2018-03-18T12:21:25.142Z,3.33
2018-03-18T12:22:34.074Z,3.35
2018-03-18T12:23:42.911Z,3.4
2018-03-18T12:24:51.747Z,3.33
2018-03-18T12:26:00.581Z,3.32
2018-03-18T12:27:09.419Z,3.47
2018-03-18T12:28:18.504Z,3.58
2018-03-18T12:29:27.340Z,3.47
2018-03-18T12:30:36.179Z,3.17
2018-03-18T12:31:45.300Z,3.32
2018-03-18T12:32:54.137Z,3.32
2018-03-18T12:34:03.124Z,3.65
2018-03-18T12:35:11.959Z,3.7
2018-03-18T12:36:20.796Z,3.57
2018-03-18T12:37:29.629Z,3.42
2018-03-18T12:38:38.464Z,3.47
2018-03-18T12:39:47.354Z,3.52
2018-03-18T12:40:56.192Z,3.68
2018-03-18T12:42:05.301Z,3.79
2018-03-18T12:43:14.142Z,3.84
2018-03-18T12:44:22.974Z,3.93
2018-03-18T12:45:31.911Z,4.06
2018-03-18T12:46:40.754Z,4.22
2018-03-18T12:47:50.142Z,4
2018-03-18T12:48:58.978Z,3.86
2018-03-18T12:50:07.812Z,3.88
2018-03-18T12:51:16.652Z,4
2018-03-18T12:52:25.489Z,3.97
2018-03-18T12:53:34.327Z,4.06
2018-03-18T12:54:43.195Z,3.98
2018-03-18T12:55:52.011Z,4.08
2018-03-18T12:57:00.896Z,4
2018-03-18T12:58:09.731Z,3.96
2018-03-18T12:59:18.571Z,4.06
2018-03-18T13:00:27.409Z,4.05
2018-03-18T13:01:36.246Z,4
2018-03-18T13:02:45.133Z,4.08
2018-03-18T13:03:54.533Z,4.18
2018-03-18T13:05:03.368Z,4.04
2018-03-18T13:06:12.489Z,4.04
2018-03-18T13:07:21.427Z,4.16
2018-03-18T13:08:30.566Z,4.15
2018-03-18T13:09:39.691Z,4.24
2018-03-18T13:10:48.809Z,4.08
2018-03-18T13:11:57.647Z,4.09
2018-03-18T13:13:06.491Z,4.36
2018-03-18T13:14:15.751Z,4.51
2018-03-18T13:15:24.593Z,4.72
2018-03-18T13:16:33.712Z,4.8
2018-03-18T13:17:42.837Z,4.67
2018-03-18T13:18:51.682Z,4.55
2018-03-18T13:20:00.580Z,4.62
2018-03-18T13:21:09.429Z,4.33
2018-03-18T13:22:18.279Z,4.27
2018-03-18T13:23:27.126Z,4.24
2018-03-18T13:24:35.981Z,4.33
2018-03-18T13:25:44.980Z,4.3
2018-03-18T13:26:53.823Z,4.3
2018-03-18T13:28:02.674Z,4.26
2018-03-18T13:29:11.511Z,4.05
2018-03-18T13:30:20.346Z,4.27
2018-03-18T13:31:29.182Z,4.42
2018-03-18T13:32:38.018Z,4.55
2018-03-18T13:33:46.912Z,4.55
2018-03-18T13:34:55.751Z,4.67
2018-03-18T13:36:04.584Z,4.75
2018-03-18T13:37:13.518Z,4.73
2018-03-18T13:38:22.352Z,4.66
2018-03-18T13:39:31.188Z,4.42
2018-03-18T13:40:40.024Z,4.51
2018-03-18T13:41:48.862Z,4.7
2018-03-18T13:42:57.747Z,4.89
2018-03-18T13:44:06.588Z,4.99
2018-03-18T13:45:15.433Z,5.04
2018-03-18T13:46:24.276Z,5.1
2018-03-18T13:47:33.119Z,5.02
2018-03-18T13:48:42.104Z,5.03
2018-03-18T13:49:51.009Z,5
2018-03-18T13:50:59.855Z,4.96
2018-03-18T13:52:08.690Z,4.99
2018-03-18T13:53:17.524Z,5.02
2018-03-18T13:54:26.614Z,5.21
2018-03-18T13:55:35.450Z,5.46
2018-03-18T13:56:44.287Z,5.51
2018-03-18T13:57:53.126Z,5.54
2018-03-18T13:59:01.969Z,5.65
2018-03-18T14:00:11.384Z,5.4
2018-03-18T14:01:20.267Z,5.58
2018-03-18T14:02:29.057Z,5.67
2018-03-18T14:03:37.895Z,5.76
2018-03-18T14:04:47.011Z,5.71
2018-03-18T14:05:55.908Z,5.91
2018-03-18T14:07:04.797Z,6.25
2018-03-18T14:08:13.654Z,6.31
2018-03-18T14:09:22.492Z,6.22
2018-03-18T14:10:31.341Z,6.25
2018-03-18T14:11:40.339Z,6.27
2018-03-18T14:12:49.203Z,6.25
2018-03-18T14:13:58.047Z,6.34
2018-03-18T14:15:06.888Z,5.61
2018-03-18T14:16:15.733Z,5.42
2018-03-18T14:17:24.676Z,5.46
2018-03-18T14:18:33.521Z,5.71
2018-03-18T14:19:42.363Z,5.76
2018-03-18T14:20:51.204Z,5.94
2018-03-18T14:22:00.044Z,6
2018-03-18T14:23:08.984Z,6.04
2018-03-18T14:24:17.831Z,6.25
2018-03-18T14:25:26.680Z,6.43
2018-03-18T14:26:35.532Z,6.77
2018-03-18T14:27:44.378Z,6.79
2018-03-18T14:28:53.222Z,6.91
2018-03-18T14:30:02.065Z,6.85
2018-03-18T14:31:10.913Z,6.89
2018-03-18T14:32:19.751Z,6.3
2018-03-18T14:33:28.596Z,6.36
2018-03-18T14:34:37.438Z,6.48
2018-03-18T14:35:46.277Z,6.48
2018-03-18T14:36:55.140Z,6.69
2018-03-18T14:38:03.983Z,6.66
2018-03-18T14:39:12.827Z,6.21
2018-03-18T14:40:21.700Z,6.4
2018-03-18T14:41:30.817Z,6.44
2018-03-18T14:42:39.959Z,6.71
2018-03-18T14:43:49.084Z,6.73
2018-03-18T14:44:57.949Z,6.36
2018-03-18T14:46:06.770Z,6.55
2018-03-18T14:47:15.634Z,6.34
2018-03-18T14:48:24.524Z,6.33
2018-03-18T14:49:33.390Z,6.31
2018-03-18T14:50:42.513Z,6.06
2018-03-18T14:51:51.633Z,5.99
2018-03-18T14:53:00.517Z,5.91
2018-03-18T14:54:09.433Z,6.18
2018-03-18T14:55:18.287Z,6.09
2018-03-18T14:56:27.199Z,6.18
2018-03-18T14:57:36.048Z,6.28
2018-03-18T14:58:44.891Z,6.38
2018-03-18T14:59:53.884Z,6.27
2018-03-18T15:01:02.731Z,6.41
2018-03-18T15:02:11.572Z,6.4
2018-03-18T15:03:20.426Z,6.34